DLH447 KDEN-EDDF
Flight info
| Callsign | DLH447 |
|---|---|
| Flight time | N/A |
| Altitude | 35000 |
| Route | CHUWY1 CHUWY DCT KP87C DCT 4930N09000W 5430N08000W 5830N07000W/M085F370 DCT MAXAR DCT 6230N05000W 6230N04000W 6130N03000W 60N020W DCT ETILO/N0487F370 DCT EVNAL/N0483F390 DCT ERKIT N110 DOLAS DCT NAVPI DCT NOLRU DCT DIXAT DIXAT1C |
| Aircraft | A359/H-SDE2E3GHIJ3J4J5LM1ORWXY/LB1D1 |
Departure
| Time | N/A |
|---|---|
| Airport | Denver International Airport (KDEN) |
Arrival
| Time | 2026-05-05 08:29 |
|---|---|
| Airport | Frankfurt Main Airport (EDDF) |
| Time | Latitude | Longitude | Altitude | Speed | Heading |
|---|---|---|---|---|---|
| 2026-05-05 08:04 | 50.53607 | 6.75314 | 27953 ft | 452 kts | 163° |
| 2026-05-05 08:04 | 50.50649 | 6.76931 | 26818 ft | 449 kts | 163° |
| 2026-05-05 08:04 | 50.47744 | 6.78514 | 26325 ft | 444 kts | 163° |
| 2026-05-05 08:05 | 50.44843 | 6.80094 | 25788 ft | 439 kts | 163° |
| 2026-05-05 08:05 | 50.41960 | 6.81661 | 25256 ft | 435 kts | 162° |
| 2026-05-05 08:05 | 50.39114 | 6.83219 | 24710 ft | 432 kts | 161° |
| 2026-05-05 08:05 | 50.36389 | 6.85170 | 24183 ft | 430 kts | 151° |
| 2026-05-05 08:06 | 50.33999 | 6.87977 | 23645 ft | 430 kts | 138° |
| 2026-05-05 08:06 | 50.32098 | 6.91597 | 23007 ft | 431 kts | 124° |
| 2026-05-05 08:06 | 50.30694 | 6.95734 | 22410 ft | 429 kts | 117° |
| 2026-05-05 08:06 | 50.29460 | 6.99906 | 21856 ft | 426 kts | 117° |
| 2026-05-05 08:07 | 50.28228 | 7.04128 | 21304 ft | 432 kts | 116° |
| 2026-05-05 08:07 | 50.26955 | 7.08448 | 20771 ft | 440 kts | 117° |
| 2026-05-05 08:07 | 50.25660 | 7.12813 | 20155 ft | 440 kts | 117° |
| 2026-05-05 08:07 | 50.24373 | 7.17125 | 19580 ft | 436 kts | 117° |
| 2026-05-05 08:08 | 50.23091 | 7.21407 | 19006 ft | 433 kts | 117° |
| 2026-05-05 08:08 | 50.21817 | 7.25652 | 18435 ft | 430 kts | 117° |
| 2026-05-05 08:08 | 50.20550 | 7.29860 | 17847 ft | 426 kts | 117° |
| 2026-05-05 08:08 | 50.19297 | 7.34028 | 17284 ft | 422 kts | 116° |
| 2026-05-05 08:09 | 50.18218 | 7.38280 | 16721 ft | 420 kts | 112° |
| 2026-05-05 08:09 | 50.17253 | 7.42517 | 16193 ft | 416 kts | 112° |
| 2026-05-05 08:09 | 50.16284 | 7.46744 | 15646 ft | 412 kts | 112° |
| 2026-05-05 08:09 | 50.15307 | 7.50926 | 15102 ft | 409 kts | 112° |
| 2026-05-05 08:10 | 50.14325 | 7.55082 | 14573 ft | 406 kts | 112° |
| 2026-05-05 08:10 | 50.13345 | 7.59193 | 14046 ft | 403 kts | 112° |
| 2026-05-05 08:10 | 50.12364 | 7.63290 | 13497 ft | 401 kts | 112° |
| 2026-05-05 08:10 | 50.11352 | 7.67313 | 12948 ft | 396 kts | 116° |
| 2026-05-05 08:11 | 50.10004 | 7.70958 | 12647 ft | 389 kts | 125° |
| 2026-05-05 08:11 | 50.08516 | 7.74371 | 12464 ft | 373 kts | 127° |
| 2026-05-05 08:11 | 50.07061 | 7.77633 | 12261 ft | 360 kts | 127° |
| 2026-05-05 08:11 | 50.05652 | 7.80783 | 12014 ft | 347 kts | 127° |
| 2026-05-05 08:12 | 50.04296 | 7.83818 | 11817 ft | 335 kts | 127° |
| 2026-05-05 08:12 | 50.02986 | 7.86750 | 11615 ft | 324 kts | 127° |
| 2026-05-05 08:12 | 50.01721 | 7.89582 | 11432 ft | 313 kts | 127° |
| 2026-05-05 08:12 | 50.00539 | 7.92376 | 11193 ft | 306 kts | 121° |
| 2026-05-05 08:13 | 49.99918 | 7.95518 | 10840 ft | 306 kts | 95° |
| 2026-05-05 08:13 | 50.00216 | 7.98705 | 10683 ft | 302 kts | 74° |
| 2026-05-05 08:13 | 50.00925 | 8.01779 | 10532 ft | 302 kts | 70° |
| 2026-05-05 08:13 | 50.01691 | 8.04817 | 10359 ft | 302 kts | 70° |
| 2026-05-05 08:14 | 50.02457 | 8.07861 | 10203 ft | 301 kts | 70° |
| 2026-05-05 08:14 | 50.03211 | 8.10894 | 10029 ft | 300 kts | 70° |
| 2026-05-05 08:14 | 50.03956 | 8.13919 | 9875 ft | 299 kts | 70° |
| 2026-05-05 08:14 | 50.04695 | 8.16937 | 9700 ft | 298 kts | 70° |
| 2026-05-05 08:15 | 50.05422 | 8.19922 | 9533 ft | 297 kts | 70° |
| 2026-05-05 08:15 | 50.06152 | 8.22929 | 9353 ft | 296 kts | 70° |
| 2026-05-05 08:15 | 50.06879 | 8.25924 | 9209 ft | 295 kts | 70° |
| 2026-05-05 08:15 | 50.07600 | 8.28906 | 9048 ft | 294 kts | 70° |
| 2026-05-05 08:16 | 50.08320 | 8.31881 | 8878 ft | 293 kts | 70° |
| 2026-05-05 08:16 | 50.09035 | 8.34843 | 8751 ft | 292 kts | 71° |
| 2026-05-05 08:16 | 50.09748 | 8.37807 | 8647 ft | 292 kts | 71° |
| 2026-05-05 08:16 | 50.10463 | 8.40762 | 8509 ft | 291 kts | 71° |
| 2026-05-05 08:17 | 50.11171 | 8.43711 | 8352 ft | 291 kts | 71° |
| 2026-05-05 08:17 | 50.11872 | 8.46641 | 8186 ft | 283 kts | 71° |
| 2026-05-05 08:17 | 50.12547 | 8.49461 | 8029 ft | 273 kts | 71° |
| 2026-05-05 08:17 | 50.13197 | 8.52179 | 7866 ft | 263 kts | 71° |
| 2026-05-05 08:18 | 50.13824 | 8.54803 | 7751 ft | 256 kts | 71° |
| 2026-05-05 08:18 | 50.14442 | 8.57395 | 7599 ft | 255 kts | 71° |
| 2026-05-05 08:18 | 50.15060 | 8.59991 | 7471 ft | 255 kts | 71° |
| 2026-05-05 08:18 | 50.15674 | 8.62578 | 7329 ft | 254 kts | 71° |
| 2026-05-05 08:19 | 50.16282 | 8.65139 | 7174 ft | 254 kts | 71° |
| 2026-05-05 08:19 | 50.16896 | 8.67720 | 7030 ft | 253 kts | 71° |
| 2026-05-05 08:19 | 50.17512 | 8.70298 | 6762 ft | 252 kts | 71° |
| 2026-05-05 08:19 | 50.18122 | 8.72863 | 6473 ft | 251 kts | 72° |
| 2026-05-05 08:20 | 50.18725 | 8.75418 | 6183 ft | 250 kts | 72° |
| 2026-05-05 08:20 | 50.19325 | 8.77958 | 5875 ft | 249 kts | 72° |
| 2026-05-05 08:20 | 50.19926 | 8.80490 | 5571 ft | 248 kts | 72° |
| 2026-05-05 08:20 | 50.20319 | 8.82163 | 5358 ft | 247 kts | 71° |
| 2026-05-05 08:21 | 50.20906 | 8.84664 | 5064 ft | 245 kts | 71° |
| 2026-05-05 08:21 | 50.21681 | 8.87967 | 4656 ft | 242 kts | 71° |
| 2026-05-05 08:21 | 50.21896 | 8.90517 | 4350 ft | 236 kts | 100° |
| 2026-05-05 08:21 | 50.21584 | 8.92124 | 4140 ft | 232 kts | 117° |
| 2026-05-05 08:22 | 50.20631 | 8.94059 | 3988 ft | 219 kts | 141° |
| 2026-05-05 08:22 | 50.19350 | 8.95192 | 3976 ft | 209 kts | 162° |
| 2026-05-05 08:22 | 50.17929 | 8.95492 | 3972 ft | 201 kts | 184° |
| 2026-05-05 08:22 | 50.16601 | 8.95194 | 3995 ft | 186 kts | 191° |
| 2026-05-05 08:23 | 50.15393 | 8.94802 | 3984 ft | 170 kts | 192° |
| 2026-05-05 08:23 | 50.14254 | 8.94426 | 3982 ft | 166 kts | 192° |
| 2026-05-05 08:23 | 50.13147 | 8.93915 | 3982 ft | 167 kts | 204° |
| 2026-05-05 08:23 | 50.12272 | 8.92590 | 3992 ft | 184 kts | 235° |
| 2026-05-05 08:24 | 50.11707 | 8.90815 | 3980 ft | 183 kts | 247° |
| 2026-05-05 08:24 | 50.11259 | 8.88961 | 3980 ft | 179 kts | 248° |
| 2026-05-05 08:24 | 50.10831 | 8.87164 | 3981 ft | 179 kts | 248° |
| 2026-05-05 08:24 | 50.10397 | 8.85351 | 3952 ft | 179 kts | 248° |
| 2026-05-05 08:25 | 50.09954 | 8.83539 | 3765 ft | 178 kts | 248° |
| 2026-05-05 08:25 | 50.09519 | 8.81737 | 3508 ft | 178 kts | 248° |
| 2026-05-05 08:25 | 50.09092 | 8.79937 | 3244 ft | 176 kts | 249° |
| 2026-05-05 08:25 | 50.08664 | 8.78143 | 3011 ft | 177 kts | 249° |
| 2026-05-05 08:26 | 50.08234 | 8.76342 | 2773 ft | 178 kts | 248° |
| 2026-05-05 08:26 | 50.07804 | 8.74541 | 2535 ft | 178 kts | 249° |
| 2026-05-05 08:26 | 50.07373 | 8.72736 | 2297 ft | 178 kts | 249° |
| 2026-05-05 08:26 | 50.06942 | 8.70935 | 2066 ft | 178 kts | 249° |
| 2026-05-05 08:27 | 50.06512 | 8.69132 | 1816 ft | 177 kts | 249° |
| 2026-05-05 08:27 | 50.06089 | 8.67363 | 1583 ft | 174 kts | 250° |
| 2026-05-05 08:27 | 50.05681 | 8.65657 | 1360 ft | 163 kts | 250° |
| 2026-05-05 08:27 | 50.05300 | 8.64062 | 1128 ft | 152 kts | 250° |
| 2026-05-05 08:28 | 50.04941 | 8.62562 | 946 ft | 145 kts | 249° |
| 2026-05-05 08:28 | 50.04585 | 8.61092 | 746 ft | 146 kts | 251° |
| 2026-05-05 08:28 | 50.04230 | 8.59607 | 551 ft | 146 kts | 250° |
| 2026-05-05 08:28 | 50.03874 | 8.58119 | 382 ft | 146 kts | 252° |
| 2026-05-05 08:29 | 50.03549 | 8.56744 | 361 ft | 112 kts | 250° |
| 2026-05-05 08:29 | 50.03383 | 8.56047 | 364 ft | 28 kts | 251° |
| 2026-05-05 08:29 | 50.03319 | 8.55759 | 356 ft | 29 kts | 253° |
| 2026-05-05 08:30 | 50.03331 | 8.55340 | 356 ft | 3 kts | 280° |
| 2026-05-05 08:30 | 50.03337 | 8.55295 | 357 ft | 6 kts | 280° |
| 2026-05-05 08:30 | 50.03349 | 8.55180 | 357 ft | 16 kts | 279° |
| 2026-05-05 08:30 | 50.03365 | 8.54976 | 355 ft | 20 kts | 267° |
| 2026-05-05 08:31 | 50.03322 | 8.54762 | 354 ft | 22 kts | 249° |
| 2026-05-05 08:31 | 50.03274 | 8.54555 | 350 ft | 18 kts | 260° |
| 2026-05-05 08:31 | 50.03333 | 8.54469 | 355 ft | 8 kts | 339° |
| 2026-05-05 08:31 | 50.03390 | 8.54436 | 353 ft | 9 kts | 340° |
| 2026-05-05 08:32 | 50.03480 | 8.54384 | 358 ft | 17 kts | 339° |
| 2026-05-05 08:32 | 50.03597 | 8.54318 | 356 ft | 16 kts | 344° |
| 2026-05-05 08:32 | 50.03677 | 8.54395 | 357 ft | 14 kts | 67° |
| 2026-05-05 08:32 | 50.03711 | 8.54538 | 360 ft | 15 kts | 70° |
| 2026-05-05 08:33 | 50.03753 | 8.54717 | 361 ft | 18 kts | 70° |
| 2026-05-05 08:33 | 50.03798 | 8.54904 | 362 ft | 19 kts | 70° |
| 2026-05-05 08:33 | 50.03845 | 8.55098 | 357 ft | 20 kts | 69° |
| 2026-05-05 08:33 | 50.03895 | 8.55302 | 364 ft | 21 kts | 69° |
| 2026-05-05 08:34 | 50.03947 | 8.55519 | 358 ft | 22 kts | 70° |
| 2026-05-05 08:34 | 50.03998 | 8.55748 | 363 ft | 23 kts | 70° |
| 2026-05-05 08:34 | 50.04061 | 8.55951 | 365 ft | 18 kts | 33° |
| 2026-05-05 08:34 | 50.04178 | 8.55925 | 364 ft | 17 kts | 348° |
| 2026-05-05 08:35 | 50.04290 | 8.55954 | 366 ft | 16 kts | 350° |
| 2026-05-05 08:35 | 50.04397 | 8.55908 | 365 ft | 16 kts | 355° |
| 2026-05-05 08:35 | 50.04503 | 8.55947 | 370 ft | 15 kts | 17° |
| 2026-05-05 08:35 | 50.04562 | 8.56026 | 370 ft | 10 kts | 58° |
| 2026-05-05 08:36 | 50.04613 | 8.56077 | 369 ft | 9 kts | 354° |
| 2026-05-05 08:36 | 50.04660 | 8.56052 | 369 ft | 0 kts | 340° |
| 2026-05-05 08:36 | 50.04672 | 8.56046 | 369 ft | 0 kts | 340° |